Time;durP1;ratioP1;P1;durP2;ratioP2;P2;SDS_P1;SDS_P2;PMS_P1;PMS_P2;Temp;Humidity;BMP_temperature;BMP_pressure;BME280_temperature;BME280_humidity;BME280_pressure;Samples;Min_cycle;Max_cycle;Signal;HPM_P1;HPM_P2
2024/01/27 00:00:30;;;;;;;29.65;6.75;;;8.50;99.90;;;;;;5066554;28;20051;-74
2024/01/27 00:02:56;;;;;;;30.08;6.55;;;7.60;99.90;;;;;;5050803;28;20040;-76
2024/01/27 00:05:22;;;;;;;24.70;6.00;;;7.80;99.90;;;;;;5050085;28;20066;-77
2024/01/27 00:07:47;;;;;;;27.75;5.97;;;7.80;99.90;;;;;;5047937;28;20048;-78
2024/01/27 00:10:13;;;;;;;28.35;6.47;;;7.50;99.90;;;;;;5050064;28;20497;-78
2024/01/27 00:12:40;;;;;;;35.08;7.10;;;7.50;99.90;;;;;;5052640;28;20420;-77
2024/01/27 00:15:08;;;;;;;29.48;6.55;;;8.30;99.90;;;;;;5054024;28;20059;-78
2024/01/27 00:17:35;;;;;;;25.23;5.97;;;8.40;99.90;;;;;;5065314;28;20052;-80
2024/01/27 00:20:01;;;;;;;23.95;6.75;;;7.80;99.90;;;;;;5049282;28;20488;-82
2024/01/27 00:22:27;;;;;;;31.60;6.32;;;7.80;99.90;;;;;;5059288;28;20040;-79
2024/01/27 00:24:52;;;;;;;25.42;5.78;;;8.00;99.90;;;;;;5063391;28;21975;-81
2024/01/27 00:27:18;;;;;;;24.73;6.18;;;7.70;99.90;;;;;;5042383;28;20036;-77
2024/01/27 00:29:44;;;;;;;28.67;5.57;;;8.30;99.90;;;;;;5056647;28;20048;-78
2024/01/27 00:32:09;;;;;;;28.75;5.22;;;7.80;99.90;;;;;;5040985;28;20124;-80
2024/01/27 00:34:35;;;;;;;25.92;5.90;;;8.20;99.90;;;;;;5067280;28;20052;-76
2024/01/27 00:37:01;;;;;;;35.17;7.20;;;8.40;99.90;;;;;;5063076;28;20623;-79
2024/01/27 00:39:27;;;;;;;30.45;6.25;;;7.90;99.90;;;;;;5064374;28;20170;-77
2024/01/27 00:41:54;;;;;;;23.02;5.80;;;7.60;99.90;;;;;;5063806;28;20077;-81
2024/01/27 00:44:20;;;;;;;26.58;4.82;;;8.20;99.90;;;;;;5067647;28;20529;-76
2024/01/27 00:46:46;;;;;;;37.17;6.05;;;7.80;99.90;;;;;;5050387;28;20194;-80
2024/01/27 00:49:11;;;;;;;26.17;5.97;;;7.70;99.90;;;;;;5030058;28;20068;-76
2024/01/27 00:51:37;;;;;;;27.88;5.18;;;7.90;99.90;;;;;;5031094;28;20044;-79
2024/01/27 00:54:03;;;;;;;31.05;6.68;;;7.90;99.90;;;;;;5015113;28;20521;-80
2024/01/27 00:56:28;;;;;;;28.77;5.35;;;7.40;99.90;;;;;;5046458;28;20183;-79
2024/01/27 00:58:54;;;;;;;27.67;5.55;;;7.30;99.90;;;;;;5062610;28;20041;-75
2024/01/27 01:01:19;;;;;;;20.92;5.32;;;8.00;99.90;;;;;;5068002;28;20167;-80
2024/01/27 01:03:45;;;;;;;34.08;5.97;;;7.30;99.90;;;;;;5065406;28;20049;-78
2024/01/27 01:06:11;;;;;;;26.25;5.75;;;7.90;99.90;;;;;;5048567;28;20043;-78
2024/01/27 01:08:37;;;;;;;23.67;5.97;;;7.30;99.90;;;;;;5049821;28;20040;-79
2024/01/27 01:11:02;;;;;;;22.35;5.82;;;8.00;99.90;;;;;;5019154;28;20111;-78
2024/01/27 01:13:28;;;;;;;29.88;6.18;;;8.00;99.90;;;;;;5070436;28;20082;-77
2024/01/27 01:15:54;;;;;;;26.45;6.07;;;7.80;99.90;;;;;;5052825;28;20148;-80
2024/01/27 01:18:19;;;;;;;24.02;6.28;;;8.00;99.90;;;;;;5051599;28;20047;-78
2024/01/27 01:20:45;;;;;;;26.73;5.47;;;7.60;99.90;;;;;;5048080;28;20049;-77
2024/01/27 01:23:11;;;;;;;24.58;5.82;;;7.40;99.90;;;;;;5070762;28;20397;-78
2024/01/27 01:25:36;;;;;;;33.45;6.43;;;7.20;99.90;;;;;;5047693;28;20044;-77
2024/01/27 01:28:03;;;;;;;31.63;6.93;;;7.50;99.90;;;;;;5034792;28;20062;-75
2024/01/27 01:30:29;;;;;;;24.52;5.63;;;7.90;99.90;;;;;;5096226;28;20044;-75
2024/01/27 01:32:54;;;;;;;27.23;6.22;;;7.20;99.90;;;;;;5037896;28;20055;-78
2024/01/27 01:35:20;;;;;;;22.80;5.90;;;7.30;99.90;;;;;;5085746;28;20049;-80
2024/01/27 01:37:48;;;;;;;27.33;6.22;;;7.70;99.90;;;;;;5048038;28;20465;-77
2024/01/27 01:40:15;;;;;;;23.75;5.40;;;7.40;99.90;;;;;;5031147;28;20064;-78
2024/01/27 01:42:41;;;;;;;22.05;5.00;;;7.80;99.90;;;;;;5060850;28;20052;-80
2024/01/27 01:45:10;;;;;;;26.45;6.20;;;7.80;99.90;;;;;;5062631;28;20131;-80
2024/01/27 01:47:36;;;;;;;25.42;5.32;;;7.70;99.90;;;;;;5069566;28;20052;-77
2024/01/27 01:50:02;;;;;;;24.20;5.25;;;7.30;99.90;;;;;;5052542;28;20093;-78
2024/01/27 01:52:28;;;;;;;27.45;6.40;;;7.80;99.90;;;;;;5051757;28;20040;-72
2024/01/27 01:54:54;;;;;;;21.00;5.25;;;7.30;99.90;;;;;;5047523;28;20042;-79
2024/01/27 01:57:20;;;;;;;27.85;5.78;;;7.70;99.90;;;;;;5047948;28;20118;-74
2024/01/27 01:59:45;;;;;;;27.15;6.20;;;7.80;99.90;;;;;;5055753;28;20102;-76
2024/01/27 02:02:12;;;;;;;24.67;6.10;;;7.80;99.90;;;;;;5060836;28;20041;-72
2024/01/27 02:04:47;;;;;;;30.15;5.90;;;7.50;99.90;;;;;;5059585;28;20044;-81
2024/01/27 02:07:14;;;;;;;26.35;5.85;;;7.80;99.90;;;;;;5035446;28;20048;-75
2024/01/27 02:09:39;;;;;;;22.40;5.70;;;7.80;99.90;;;;;;5056484;28;20127;-78
2024/01/27 02:12:06;;;;;;;26.33;5.97;;;7.70;99.90;;;;;;5061285;28;20123;-79
2024/01/27 02:14:31;;;;;;;25.55;5.50;;;7.70;99.90;;;;;;5062926;28;20063;-79
2024/01/27 02:16:57;;;;;;;24.48;5.63;;;7.70;99.90;;;;;;5031549;28;20048;-77
2024/01/27 02:19:23;;;;;;;26.52;5.45;;;7.10;99.90;;;;;;5029879;28;20036;-78
2024/01/27 02:21:50;;;;;;;30.52;5.85;;;7.50;99.90;;;;;;5052242;28;20048;-79
2024/01/27 02:24:15;;;;;;;23.10;5.40;;;7.10;99.90;;;;;;5031516;28;20045;-75
2024/01/27 02:26:41;;;;;;;29.13;4.75;;;7.30;99.90;;;;;;5059862;28;20045;-77
2024/01/27 02:29:07;;;;;;;22.55;4.90;;;6.80;99.90;;;;;;5058199;28;20044;-78
2024/01/27 02:31:32;;;;;;;30.77;5.28;;;7.50;99.90;;;;;;5046624;28;20040;-75
2024/01/27 02:33:58;;;;;;;22.45;4.68;;;7.70;99.90;;;;;;5072557;28;20106;-80
2024/01/27 02:36:24;;;;;;;22.02;5.05;;;6.80;99.90;;;;;;5060814;28;20040;-77
2024/01/27 02:38:49;;;;;;;25.05;5.53;;;7.30;99.90;;;;;;5068216;28;20047;-76
2024/01/27 02:41:15;;;;;;;25.67;6.10;;;7.20;99.90;;;;;;5031591;28;20060;-75
2024/01/27 02:43:41;;;;;;;27.83;5.07;;;6.90;99.90;;;;;;5060048;28;20110;-75
2024/01/27 02:46:12;;;;;;;25.38;6.15;;;6.70;99.90;;;;;;5052244;28;20530;-78
2024/01/27 02:48:42;;;;;;;26.23;5.78;;;6.80;99.90;;;;;;5069588;28;20036;-77
2024/01/27 02:51:08;;;;;;;23.50;5.20;;;6.80;99.90;;;;;;5043310;28;20045;-78
2024/01/27 02:53:34;;;;;;;23.55;5.05;;;7.30;99.90;;;;;;5038377;28;20048;-76
2024/01/27 02:55:59;;;;;;;23.63;5.47;;;6.90;99.90;;;;;;5063415;28;20051;-80
2024/01/27 02:58:25;;;;;;;21.65;5.25;;;6.70;99.90;;;;;;5053171;28;20045;-77
2024/01/27 03:00:51;;;;;;;21.15;5.65;;;7.10;99.90;;;;;;5047649;28;20424;-78
2024/01/27 03:03:16;;;;;;;24.63;5.47;;;7.40;99.90;;;;;;5053811;28;20055;-77
2024/01/27 03:05:42;;;;;;;27.13;6.38;;;7.30;99.90;;;;;;5034302;28;20090;-76
2024/01/27 03:08:08;;;;;;;28.45;6.28;;;7.30;99.90;;;;;;5060625;28;20509;-78
2024/01/27 03:10:33;;;;;;;27.15;6.25;;;7.40;99.90;;;;;;5031703;28;20045;-75
2024/01/27 03:12:59;;;;;;;26.95;6.80;;;6.60;99.90;;;;;;5053218;28;20048;-77
2024/01/27 03:15:25;;;;;;;30.48;7.10;;;6.50;99.90;;;;;;5049038;28;20036;-82
2024/01/27 03:17:50;;;;;;;25.50;6.00;;;6.70;99.90;;;;;;5045362;28;20098;-74
2024/01/27 03:20:16;;;;;;;27.60;6.05;;;7.00;99.90;;;;;;5068240;28;20024;-79
2024/01/27 03:22:42;;;;;;;25.67;6.03;;;7.50;99.90;;;;;;5029466;28;20047;-77
2024/01/27 03:25:09;;;;;;;23.55;6.45;;;7.30;99.90;;;;;;5042893;28;20036;-77
2024/01/27 03:27:35;;;;;;;27.13;6.43;;;7.50;99.90;;;;;;5043725;28;20134;-75
2024/01/27 03:30:02;;;;;;;24.02;5.43;;;6.70;99.90;;;;;;5062403;28;20597;-78
2024/01/27 03:32:31;;;;;;;27.67;5.70;;;7.10;99.90;;;;;;5035088;28;20037;-79
2024/01/27 03:35:00;;;;;;;27.02;5.05;;;7.50;99.90;;;;;;5050872;28;20453;-77
2024/01/27 03:37:27;;;;;;;23.52;5.07;;;7.50;99.90;;;;;;5063742;28;20051;-76
2024/01/27 03:39:53;;;;;;;25.92;5.47;;;7.40;99.90;;;;;;5043939;28;20032;-81
2024/01/27 03:42:19;;;;;;;27.23;4.93;;;6.80;99.90;;;;;;5031847;28;20040;-75
2024/01/27 03:44:44;;;;;;;25.48;6.00;;;7.40;99.90;;;;;;5058311;28;20106;-80
2024/01/27 03:47:10;;;;;;;22.77;5.07;;;7.30;99.90;;;;;;5064139;28;20036;-76
2024/01/27 03:49:36;;;;;;;18.58;4.78;;;6.70;99.90;;;;;;5044839;28;20052;-81
2024/01/27 03:52:02;;;;;;;25.35;4.95;;;6.90;99.90;;;;;;5040787;28;20039;-79
2024/01/27 03:54:27;;;;;;;24.83;5.63;;;7.10;99.90;;;;;;5051205;28;20123;-79
2024/01/27 03:56:54;;;;;;;22.73;5.00;;;7.20;99.90;;;;;;5056719;28;20350;-76
2024/01/27 03:59:20;;;;;;;24.60;5.45;;;6.60;99.90;;;;;;5066635;28;20068;-78
2024/01/27 04:01:45;;;;;;;22.35;5.28;;;7.10;99.90;;;;;;5050425;28;20059;-77
2024/01/27 04:04:11;;;;;;;21.98;5.13;;;7.20;99.90;;;;;;5052104;28;20087;-77
2024/01/27 04:06:38;;;;;;;20.25;4.88;;;6.70;99.90;;;;;;5048428;28;20045;-78
2024/01/27 04:09:04;;;;;;;26.77;5.97;;;6.40;99.90;;;;;;5065780;28;20037;-76
2024/01/27 04:11:30;;;;;;;23.20;5.53;;;7.10;99.90;;;;;;5040426;28;20047;-78
2024/01/27 04:13:55;;;;;;;25.90;5.32;;;6.40;99.90;;;;;;5067296;28;20044;-76
2024/01/27 04:16:21;;;;;;;27.73;5.72;;;7.20;99.90;;;;;;5050065;28;20036;-77
2024/01/27 04:18:47;;;;;;;22.15;5.50;;;6.90;99.90;;;;;;5071439;28;20041;-76
2024/01/27 04:21:12;;;;;;;22.38;4.38;;;6.90;99.90;;;;;;5017659;28;20047;-78
2024/01/27 04:23:38;;;;;;;18.40;5.45;;;7.30;99.90;;;;;;5066013;28;20485;-76
2024/01/27 04:26:06;;;;;;;25.65;4.75;;;6.60;99.90;;;;;;5059109;28;20128;-77
2024/01/27 04:28:31;;;;;;;27.88;5.32;;;7.30;99.90;;;;;;5072931;28;20066;-74
2024/01/27 04:30:57;;;;;;;30.45;5.30;;;7.20;99.90;;;;;;5050121;28;20063;-78
2024/01/27 04:33:23;;;;;;;20.67;4.93;;;7.20;99.90;;;;;;5049455;28;20127;-76
2024/01/27 04:35:48;;;;;;;22.38;4.30;;;7.30;99.90;;;;;;5066362;28;20044;-75
2024/01/27 04:38:14;;;;;;;25.13;5.32;;;7.40;99.90;;;;;;5050182;28;20039;-75
2024/01/27 04:40:40;;;;;;;20.88;3.63;;;7.40;99.90;;;;;;5064399;28;20405;-78
2024/01/27 04:43:05;;;;;;;24.13;5.18;;;6.80;99.90;;;;;;5055108;28;20385;-78
2024/01/27 04:45:31;;;;;;;20.45;4.00;;;7.40;99.90;;;;;;5049815;28;20060;-76
2024/01/27 04:47:57;;;;;;;17.13;4.10;;;7.30;99.90;;;;;;5065722;28;20047;-73
2024/01/27 04:50:23;;;;;;;24.02;5.68;;;7.30;99.90;;;;;;5065027;28;21685;-77
2024/01/27 04:52:48;;;;;;;18.58;4.75;;;6.70;99.90;;;;;;5033027;28;20141;-74
2024/01/27 04:55:14;;;;;;;26.70;5.18;;;7.30;99.90;;;;;;5046180;28;20173;-79
2024/01/27 04:57:40;;;;;;;24.10;5.10;;;6.70;99.90;;;;;;5082362;28;20048;-80
2024/01/27 05:00:11;;;;;;;22.38;5.82;;;6.50;99.90;;;;;;5049317;28;20040;-79
2024/01/27 05:02:40;;;;;;;21.65;5.18;;;6.60;99.90;;;;;;5070843;28;20036;-74
2024/01/27 05:05:06;;;;;;;21.33;4.50;;;6.80;99.90;;;;;;5066199;28;20036;-75
2024/01/27 05:07:32;;;;;;;21.55;4.70;;;6.70;99.90;;;;;;5031399;28;20049;-78
2024/01/27 05:09:58;;;;;;;27.45;4.97;;;6.40;99.90;;;;;;5037240;28;20044;-76
2024/01/27 05:12:24;;;;;;;19.55;4.47;;;6.70;99.90;;;;;;5027864;28;20362;-75
2024/01/27 05:14:49;;;;;;;26.17;5.32;;;6.70;99.90;;;;;;5062108;28;20037;-75
2024/01/27 05:17:15;;;;;;;24.15;5.18;;;7.10;99.90;;;;;;5046668;28;20040;-76
2024/01/27 05:19:40;;;;;;;21.55;4.85;;;7.00;99.90;;;;;;5034508;28;20036;-77
2024/01/27 05:22:06;;;;;;;19.77;4.43;;;7.10;99.90;;;;;;5053195;28;20056;-80
2024/01/27 05:24:33;;;;;;;27.25;4.95;;;6.30;99.90;;;;;;5078759;28;20072;-79
2024/01/27 05:26:59;;;;;;;24.23;5.72;;;7.00;99.90;;;;;;5043078;28;20076;-76
2024/01/27 05:29:28;;;;;;;27.17;5.22;;;6.50;99.90;;;;;;5032806;28;20648;-74
2024/01/27 05:31:54;;;;;;;25.10;5.63;;;6.90;99.90;;;;;;5048454;28;20555;-76
2024/01/27 05:34:20;;;;;;;17.92;4.00;;;7.00;99.90;;;;;;5091948;28;20120;-75
2024/01/27 05:36:49;;;;;;;26.48;3.92;;;7.10;99.90;;;;;;5063629;28;20075;-78
2024/01/27 05:39:15;;;;;;;21.80;4.25;;;7.20;99.90;;;;;;5061067;28;20672;-78
2024/01/27 05:41:40;;;;;;;22.77;5.10;;;6.90;99.90;;;;;;5031164;28;20033;-80
2024/01/27 05:44:06;;;;;;;25.08;5.22;;;6.40;99.90;;;;;;5067140;28;20080;-79
2024/01/27 05:46:31;;;;;;;19.85;4.40;;;7.10;99.90;;;;;;5049925;28;20071;-78
2024/01/27 05:49:02;;;;;;;21.08;3.90;;;6.40;99.90;;;;;;5052095;28;20098;-75
2024/01/27 05:51:29;;;;;;;20.67;4.75;;;6.70;99.90;;;;;;5042514;28;20053;-75
2024/01/27 05:53:54;;;;;;;17.90;3.85;;;6.30;99.90;;;;;;5061091;28;20047;-77
2024/01/27 05:56:20;;;;;;;20.05;5.07;;;6.40;99.90;;;;;;5052138;28;20028;-75
2024/01/27 05:58:46;;;;;;;24.95;4.00;;;6.60;99.90;;;;;;5049875;28;20119;-73
2024/01/27 06:01:12;;;;;;;21.40;5.10;;;6.40;99.90;;;;;;5046878;28;20047;-80
2024/01/27 06:03:40;;;;;;;28.10;5.65;;;6.20;99.90;;;;;;5068477;28;20044;-77
2024/01/27 06:06:06;;;;;;;22.33;4.82;;;7.00;99.90;;;;;;5042286;28;20532;-76
2024/01/27 06:08:32;;;;;;;19.52;4.80;;;6.20;99.90;;;;;;5048822;28;20076;-77
2024/01/27 06:10:57;;;;;;;22.13;4.40;;;6.40;99.90;;;;;;5062018;28;20063;-75
2024/01/27 06:13:23;;;;;;;34.50;6.47;;;6.50;99.90;;;;;;5052556;28;20127;-78
2024/01/27 06:15:49;;;;;;;20.05;4.13;;;6.40;99.90;;;;;;5041395;28;20119;-73
2024/01/27 06:18:14;;;;;;;24.75;5.65;;;6.90;99.90;;;;;;5046891;28;20044;-79
2024/01/27 06:20:40;;;;;;;18.08;4.20;;;6.30;99.90;;;;;;5062450;28;20052;-77
2024/01/27 06:23:06;;;;;;;27.00;5.03;;;7.10;99.90;;;;;;5066806;28;20045;-77
2024/01/27 06:25:32;;;;;;;20.08;4.70;;;7.00;99.90;;;;;;5046475;28;20068;-75
2024/01/27 06:28:01;;;;;;;32.13;5.72;;;6.30;99.90;;;;;;5063823;28;20421;-76
2024/01/27 06:30:27;;;;;;;16.63;4.70;;;6.60;99.90;;;;;;5044687;28;20571;-76
2024/01/27 06:32:53;;;;;;;22.15;5.25;;;6.50;99.90;;;;;;5062159;28;20440;-81
2024/01/27 06:35:19;;;;;;;20.10;5.43;;;7.20;99.90;;;;;;5045654;28;20056;-80
2024/01/27 06:37:45;;;;;;;21.10;5.63;;;6.50;99.90;;;;;;5061716;28;20155;-76
2024/01/27 06:40:11;;;;;;;24.60;4.25;;;6.50;99.90;;;;;;5085929;28;20048;-74
2024/01/27 06:42:37;;;;;;;20.40;4.50;;;7.30;99.90;;;;;;5030428;28;20055;-75
2024/01/27 06:45:03;;;;;;;25.58;5.50;;;6.50;99.90;;;;;;5045252;28;20048;-75
2024/01/27 06:47:29;;;;;;;24.85;5.45;;;6.90;99.90;;;;;;5089694;28;20041;-77
2024/01/27 06:49:55;;;;;;;24.98;5.88;;;6.60;99.90;;;;;;5029571;28;20032;-78
2024/01/27 06:52:20;;;;;;;19.80;5.18;;;6.70;99.90;;;;;;5062738;28;20459;-75
2024/01/27 06:54:46;;;;;;;23.83;5.65;;;6.60;99.90;;;;;;5049473;28;20476;-77
2024/01/27 06:57:22;;;;;;;24.90;5.32;;;6.80;99.90;;;;;;5045543;28;20531;-75
2024/01/27 06:59:52;;;;;;;21.63;4.65;;;6.80;99.90;;;;;;5050888;28;20471;-78
2024/01/27 07:02:28;;;;;;;22.77;5.32;;;6.90;99.90;;;;;;5050837;28;20036;-76
2024/01/27 07:04:55;;;;;;;23.92;4.65;;;7.50;99.90;;;;;;5058976;28;20037;-78
2024/01/27 07:07:26;;;;;;;20.38;5.75;;;7.70;99.90;;;;;;5082823;28;20036;-77
2024/01/27 07:09:54;;;;;;;23.83;6.07;;;6.80;99.90;;;;;;5069858;28;21040;-80
2024/01/27 07:12:19;;;;;;;22.63;5.10;;;6.70;99.90;;;;;;5051749;28;20055;-76
2024/01/27 07:14:45;;;;;;;25.02;5.75;;;7.40;99.90;;;;;;5052487;28;20044;-77
2024/01/27 07:17:11;;;;;;;23.63;6.30;;;6.70;99.90;;;;;;5029122;28;20059;-78
2024/01/27 07:19:36;;;;;;;23.27;6.43;;;7.10;99.90;;;;;;5057966;28;20051;-76
2024/01/27 07:22:05;;;;;;;22.13;5.43;;;7.30;99.90;;;;;;5052677;28;20048;-78
2024/01/27 07:24:31;;;;;;;19.40;5.28;;;7.00;99.90;;;;;;5063260;28;20052;-75
2024/01/27 07:26:58;;;;;;;30.30;7.03;;;6.60;99.90;;;;;;5043635;28;20044;-74
2024/01/27 07:29:24;;;;;;;25.50;5.07;;;6.60;99.90;;;;;;5062962;28;20047;-75
2024/01/27 07:31:50;;;;;;;32.75;7.82;;;6.70;99.90;;;;;;5050781;28;20415;-80
2024/01/27 07:34:15;;;;;;;23.00;5.90;;;6.70;99.90;;;;;;5061736;28;20036;-77
2024/01/27 07:36:41;;;;;;;28.42;6.15;;;6.70;99.90;;;;;;5060647;28;20055;-81
2024/01/27 07:39:07;;;;;;;25.35;5.15;;;6.70;99.90;;;;;;5030968;28;20044;-77
2024/01/27 07:41:33;;;;;;;23.50;5.75;;;6.90;99.90;;;;;;5060307;28;20043;-78
2024/01/27 07:44:08;;;;;;;21.95;6.15;;;6.90;99.90;;;;;;5059892;28;20032;-81
2024/01/27 07:46:34;;;;;;;;;;;7.60;99.90;;;;;;5071123;28;20049;-76
2024/01/27 07:48:59;;;;;;;24.77;6.18;;;7.50;99.90;;;;;;5058137;28;19923;-81
2024/01/27 07:51:25;;;;;;;24.17;6.75;;;7.60;99.90;;;;;;5060091;28;20397;-77
2024/01/27 07:53:50;;;;;;;32.63;6.93;;;7.70;99.90;;;;;;5033708;28;20499;-78
2024/01/27 07:56:16;;;;;;;25.75;6.68;;;6.90;99.90;;;;;;5033653;28;20459;-75
2024/01/27 07:58:42;;;;;;;27.02;7.57;;;6.90;99.90;;;;;;5050617;28;20452;-74
2024/01/27 08:01:07;;;;;;;25.65;7.45;;;7.90;99.90;;;;;;5060352;28;20692;-75
2024/01/27 08:03:33;;;;;;;25.10;6.95;;;7.20;99.90;;;;;;5050138;28;20053;-78
2024/01/27 08:05:59;;;;;;;26.88;8.23;;;7.90;99.90;;;;;;5068158;28;20040;-74
2024/01/27 08:08:24;;;;;;;29.38;7.22;;;8.00;99.90;;;;;;5054182;28;20050;-78
2024/01/27 08:10:50;;;;;;;24.40;5.65;;;7.20;99.90;;;;;;5031471;28;20796;-75
2024/01/27 08:13:16;;;;;;;23.85;6.57;;;8.00;99.90;;;;;;5033291;28;20037;-75
2024/01/27 08:15:41;;;;;;;24.00;6.75;;;7.70;99.90;;;;;;5019006;28;20063;-77
2024/01/27 08:18:07;;;;;;;28.88;6.72;;;7.90;99.90;;;;;;5066291;28;20089;-74
2024/01/27 08:20:33;;;;;;;20.33;6.72;;;8.30;99.90;;;;;;5051469;28;20037;-73
2024/01/27 08:22:58;;;;;;;26.27;7.43;;;8.30;99.90;;;;;;5057891;28;20033;-78
2024/01/27 08:25:24;;;;;;;24.73;6.90;;;8.40;99.90;;;;;;5051136;28;20032;-79
2024/01/27 08:27:50;;;;;;;25.02;5.93;;;7.50;99.90;;;;;;5042825;28;20060;-79
2024/01/27 08:30:15;;;;;;;24.98;6.90;;;7.60;99.90;;;;;;5067896;28;20085;-75
2024/01/27 08:32:41;;;;;;;28.58;7.03;;;7.50;99.90;;;;;;5049998;28;20040;-78
2024/01/27 08:35:07;;;;;;;21.17;6.45;;;8.60;99.90;;;;;;5063173;28;20141;-78
2024/01/27 08:37:38;;;;;;;19.58;5.65;;;8.80;99.90;;;;;;5050353;28;20063;-80
2024/01/27 08:40:07;;;;;;;21.20;5.65;;;8.30;99.90;;;;;;5032113;28;20036;-77
2024/01/27 08:42:33;;;;;;;22.25;6.05;;;9.10;99.90;;;;;;5027080;28;20390;-77
2024/01/27 08:44:59;;;;;;;19.60;5.35;;;8.20;99.90;;;;;;5060134;28;20528;-78
2024/01/27 08:47:24;;;;;;;23.95;6.57;;;9.10;99.90;;;;;;5051026;28;20394;-79
2024/01/27 08:49:50;;;;;;;20.63;5.38;;;9.70;99.90;;;;;;5039937;28;20049;-77
2024/01/27 08:52:16;;;;;;;16.65;5.07;;;9.70;99.90;;;;;;5073314;28;20036;-79
2024/01/27 08:54:41;;;;;;;19.38;5.28;;;8.60;99.90;;;;;;5055596;28;20043;-76
2024/01/27 08:57:07;;;;;;;17.70;4.63;;;9.30;99.90;;;;;;5050738;28;20037;-77
2024/01/27 08:59:33;;;;;;;16.92;5.25;;;8.70;99.90;;;;;;5032033;28;20040;-78
2024/01/27 09:01:59;;;;;;;17.13;4.80;;;9.10;99.90;;;;;;5064261;28;20040;-77
2024/01/27 09:04:24;;;;;;;18.80;4.93;;;9.10;99.90;;;;;;5044591;28;20645;-78
2024/01/27 09:06:50;;;;;;;19.17;5.20;;;9.30;99.90;;;;;;5050150;28;20601;-78
2024/01/27 09:09:16;;;;;;;13.65;5.13;;;9.60;99.90;;;;;;5050968;28;20411;-76
2024/01/27 09:11:42;;;;;;;16.85;5.75;;;9.80;99.90;;;;;;5049981;28;20040;-77
2024/01/27 09:14:08;;;;;;;16.23;5.80;;;9.20;99.90;;;;;;5050252;28;20496;-80
2024/01/27 09:16:34;;;;;;;17.13;5.90;;;9.10;99.90;;;;;;5049889;28;20051;-80
2024/01/27 09:19:00;;;;;;;19.40;5.82;;;9.70;99.90;;;;;;5049989;28;20048;-77
2024/01/27 09:21:28;;;;;;;30.55;16.55;;;10.30;99.90;;;;;;5051027;28;20036;-78
2024/01/27 09:23:54;;;;;;;19.40;7.47;;;10.30;99.90;;;;;;5025854;28;20055;-79
2024/01/27 09:26:22;;;;;;;18.55;6.13;;;9.40;99.90;;;;;;5056904;28;20441;-78
2024/01/27 09:28:53;;;;;;;21.42;6.22;;;10.70;99.90;;;;;;5054630;28;20052;-77
2024/01/27 09:31:21;;;;;;;21.77;7.00;;;10.40;99.90;;;;;;5071357;28;20044;-82
2024/01/27 09:33:49;;;;;;;16.20;5.65;;;10.90;99.90;;;;;;5042065;28;20052;-79
2024/01/27 09:36:14;;;;;;;15.30;5.85;;;11.20;99.90;;;;;;5055469;28;20076;-79
2024/01/27 09:38:40;;;;;;;23.45;7.03;;;10.70;99.90;;;;;;5053657;28;20063;-82
2024/01/27 09:41:06;;;;;;;15.90;6.18;;;11.50;99.90;;;;;;5054583;28;20085;-79
2024/01/27 09:43:33;;;;;;;15.85;6.10;;;11.50;99.90;;;;;;5032472;28;20469;-80
2024/01/27 09:45:59;;;;;;;14.88;6.60;;;11.50;99.90;;;;;;5053888;28;20055;-82
2024/01/27 09:48:25;;;;;;;16.85;6.78;;;11.10;99.90;;;;;;5053823;28;20052;-81
2024/01/27 09:50:53;;;;;;;16.70;6.32;;;12.00;99.90;;;;;;5071971;28;20389;-80
2024/01/27 09:53:19;;;;;;;15.15;5.75;;;11.40;99.90;;;;;;5048042;28;20141;-81
2024/01/27 09:55:44;;;;;;;15.02;5.80;;;11.90;99.90;;;;;;5070709;28;20492;-80
2024/01/27 09:58:11;;;;;;;13.93;6.40;;;11.80;99.90;;;;;;5054674;28;20041;-80
2024/01/27 10:00:38;;;;;;;14.80;5.68;;;11.80;99.90;;;;;;5053884;28;20063;-79
2024/01/27 10:03:06;;;;;;;17.73;6.18;;;12.20;99.90;;;;;;5033399;28;20394;-80
2024/01/27 10:05:32;;;;;;;15.32;5.75;;;12.20;99.90;;;;;;5067821;28;20090;-85
2024/01/27 10:07:58;;;;;;;18.83;5.90;;;12.10;99.90;;;;;;5054029;28;20560;-78
2024/01/27 10:10:24;;;;;;;12.93;6.05;;;12.20;99.90;;;;;;5053303;28;20048;-80
2024/01/27 10:12:53;;;;;;;18.25;5.50;;;12.30;99.90;;;;;;5054207;28;20488;-76
2024/01/27 10:15:23;;;;;;;16.95;5.60;;;12.40;99.90;;;;;;5048534;28;20040;-80
2024/01/27 10:17:49;;;;;;;14.88;5.60;;;12.80;99.90;;;;;;5070474;28;20417;-83
2024/01/27 10:20:18;;;;;;;14.15;5.43;;;12.90;99.90;;;;;;5053724;28;20043;-81
2024/01/27 10:22:45;;;;;;;16.83;5.32;;;12.80;99.90;;;;;;5069973;28;20051;-82
2024/01/27 10:25:12;;;;;;;10.50;4.63;;;12.90;99.90;;;;;;5025886;28;20389;-79
2024/01/27 10:27:38;;;;;;;13.82;5.03;;;13.10;99.90;;;;;;5069696;28;20055;-79
2024/01/27 10:30:04;;;;;;;12.52;4.80;;;12.80;99.90;;;;;;5054553;28;20052;-80
2024/01/27 10:32:30;;;;;;;12.82;4.93;;;13.20;99.90;;;;;;5070749;28;20048;-80
2024/01/27 10:35:08;;;;;;;12.93;4.30;;;13.30;99.90;;;;;;5036203;28;20473;-83
2024/01/27 10:37:34;;;;;;;11.40;4.22;;;13.50;99.90;;;;;;5069211;28;20985;-82
2024/01/27 10:40:07;;;;;;;9.23;4.22;;;13.50;99.90;;;;;;5053440;28;20090;-80
2024/01/27 10:42:34;;;;;;;13.18;4.63;;;13.70;99.90;;;;;;5052125;28;20048;-79
2024/01/27 10:45:00;;;;;;;18.10;5.30;;;13.60;99.90;;;;;;5035949;28;20044;-82
2024/01/27 10:47:30;;;;;;;13.35;4.72;;;13.70;99.90;;;;;;5061907;28;20139;-84
2024/01/27 10:49:57;;;;;;;10.68;4.85;;;13.20;99.90;;;;;;5036228;28;20051;-79
2024/01/27 10:52:28;;;;;;;13.07;5.07;;;13.90;99.90;;;;;;5051713;28;20036;-80
2024/01/27 10:55:00;;;;;;;13.43;4.70;;;13.70;99.90;;;;;;5054874;28;20384;-82
2024/01/27 10:57:27;;;;;;;10.75;4.68;;;13.50;99.90;;;;;;5069791;28;20366;-83
2024/01/27 10:59:57;;;;;;;15.18;4.63;;;13.80;99.90;;;;;;5045512;28;20040;-81
2024/01/27 11:02:23;;;;;;;16.42;5.47;;;13.70;99.90;;;;;;5019161;28;20059;-79
2024/01/27 11:04:50;;;;;;;17.60;5.93;;;14.20;99.90;;;;;;5047088;28;20127;-84
2024/01/27 11:07:19;;;;;;;15.48;5.07;;;14.30;99.90;;;;;;5070086;28;20041;-80
2024/01/27 11:09:47;;;;;;;12.07;4.80;;;14.30;99.90;;;;;;5051656;28;20038;-79
2024/01/27 11:12:13;;;;;;;16.48;4.38;;;14.20;99.90;;;;;;5070215;28;20090;-79
2024/01/27 11:14:39;;;;;;;17.58;5.05;;;14.80;99.90;;;;;;5069734;28;20048;-81
2024/01/27 11:17:05;;;;;;;14.82;4.68;;;14.30;99.90;;;;;;5036936;28;20044;-82
2024/01/27 11:19:33;;;;;;;12.73;4.10;;;14.30;99.90;;;;;;5035729;28;20126;-81
2024/01/27 11:22:03;;;;;;;13.15;4.65;;;14.40;99.90;;;;;;5035691;28;20111;-85
2024/01/27 11:24:28;;;;;;;12.70;3.78;;;14.40;99.90;;;;;;5053085;28;20048;-81
2024/01/27 11:27:04;;;;;;;14.48;4.82;;;14.60;99.90;;;;;;5069990;28;20097;-80
2024/01/27 11:29:32;;;;;;;13.75;4.40;;;14.10;99.90;;;;;;5049559;28;20079;-76
2024/01/27 11:32:03;;;;;;;11.55;4.40;;;14.40;99.90;;;;;;5029157;28;20048;-80
2024/01/27 11:34:41;;;;;;;14.50;4.47;;;14.50;99.90;;;;;;5049214;28;20043;-79
2024/01/27 11:37:15;;;;;;;17.00;5.35;;;14.70;99.90;;;;;;5050188;28;20048;-81
2024/01/27 11:39:41;;;;;;;16.58;4.85;;;14.00;99.90;;;;;;5054253;28;20044;-80
2024/01/27 11:42:13;;;;;;;16.83;5.13;;;13.80;99.90;;;;;;5047801;28;20058;-77
2024/01/27 11:44:40;;;;;;;14.32;4.53;;;14.00;99.90;;;;;;5035540;28;20053;-79
2024/01/27 11:47:17;;;;;;;13.10;3.95;;;14.80;99.90;;;;;;5056060;28;20049;-79
2024/01/27 11:49:43;;;;;;;14.02;4.63;;;14.40;99.90;;;;;;5062800;28;20119;-77
2024/01/27 11:52:09;;;;;;;15.20;4.30;;;14.10;99.90;;;;;;5051830;28;20554;-81
2024/01/27 11:54:36;;;;;;;14.82;4.82;;;14.30;99.90;;;;;;5052335;28;20045;-80
2024/01/27 11:57:01;;;;;;;15.07;4.47;;;14.20;99.90;;;;;;5049491;28;20452;-82
2024/01/27 11:59:27;;;;;;;10.38;4.30;;;14.20;99.90;;;;;;5047995;28;20072;-79
2024/01/27 12:02:00;;;;;;;13.90;4.25;;;14.60;99.90;;;;;;5065892;28;20524;-80
2024/01/27 12:04:26;;;;;;;16.02;4.38;;;14.40;99.90;;;;;;5049890;28;20429;-79
2024/01/27 12:06:53;;;;;;;14.20;4.18;;;13.90;99.90;;;;;;5049496;28;20385;-79
2024/01/27 12:09:18;;;;;;;19.15;5.03;;;13.90;99.90;;;;;;5033181;28;20036;-82
2024/01/27 12:11:46;;;;;;;17.02;4.93;;;13.70;99.90;;;;;;5038596;28;20047;-81
2024/01/27 12:14:11;;;;;;;12.93;3.72;;;13.60;99.90;;;;;;5037085;28;20037;-83
2024/01/27 12:16:38;;;;;;;14.73;4.95;;;13.60;99.90;;;;;;5048245;28;20559;-78
2024/01/27 12:19:04;;;;;;;15.93;5.30;;;13.50;99.90;;;;;;5076477;28;20085;-78
2024/01/27 12:21:30;;;;;;;16.48;5.00;;;13.40;99.90;;;;;;5042455;28;20049;-79
2024/01/27 12:23:57;;;;;;;17.95;4.85;;;13.40;99.90;;;;;;5015591;28;20048;-81
2024/01/27 12:26:28;;;;;;;12.10;3.90;;;13.60;99.90;;;;;;5066147;28;20454;-79
2024/01/27 12:28:57;;;;;;;13.30;4.53;;;14.10;99.90;;;;;;5051730;28;20411;-78
2024/01/27 12:31:24;;;;;;;13.02;3.75;;;14.10;99.90;;;;;;5048258;28;20047;-79
2024/01/27 12:33:55;;;;;;;13.57;4.20;;;14.40;99.90;;;;;;5047920;28;20124;-80
2024/01/27 12:36:21;;;;;;;10.85;3.92;;;14.30;99.90;;;;;;5063814;28;20405;-81
2024/01/27 12:38:58;;;;;;;15.77;4.00;;;14.20;99.90;;;;;;5033896;28;20055;-82
2024/01/27 12:41:27;;;;;;;12.40;4.03;;;13.90;99.90;;;;;;5050636;28;20042;-82